Dauby — WDE9673 — position and weather

sailwx.info

Track history (hours):
 
Tides and Currents Weather Stations Pressure Air Temp Water Temp Dewpoint Dewpoint Depression Visibility Wind Speed Wind Dir Waves Ship Positions

Dauby

Owner: S D S LUMBER CO, BIRGEN, WA. More information available from US FCC via Universal Licensing System and Coast Guard Vessel Documentation Center.

Last reported at 2018-Aug-17 00:58 UTC. Time now 2018-Aug-17 11:39 UTC.
Position N 46°06' W 122°55'.

Length 15 m; draft 2.8 m.

MMSI: 338059832.

Date/timePositionNaut miles runAvg speedWind from/ knotsBaromVisibWave heightAir tempDewpointWater temp
2018-Aug-17 00:58N 46°06' W 122°55'2 2.6
2018-Aug-17 00:19N 46°05' W 122°54'310.3
2018-Aug-17 00:00N 46°02' W 122°52'510.6
2018-Aug-16 23:30N 45°57' W 122°49'3 5.2
2018-Aug-16 23:01N 45°54' W 122°49'4 7.1
2018-Aug-16 22:30N 45°58' W 122°49'4 7.6
2018-Aug-16 22:01N 46°01' W 122°52'4 7.2
2018-Aug-16 21:29N 46°05' W 122°54'1 2.7
2018-Aug-16 21:00N 46°05' W 122°56'0 0.0
2018-Aug-16 11:45N 46°05' W 122°56'0 0.0
2018-Aug-16 11:30N 46°05' W 122°56'2 3.0
2018-Aug-16 10:44N 46°04' W 122°53'411.3
2018-Aug-16 10:22N 45°60' W 122°51'510.9
2018-Aug-16 09:52N 45°55' W 122°49'411.3
2018-Aug-16 09:30N 45°51' W 122°47'510.7
2018-Aug-16 09:00N 45°46' W 122°46'611.0
2018-Aug-16 08:30N 45°40' W 122°46'1 2.5
2018-Aug-16 08:00N 45°39' W 122°45'2 4.4
2018-Aug-16 07:30N 45°41' W 122°46'3 5.2
2018-Aug-16 06:58N 45°44' W 122°46'3 5.3
2018-Aug-16 06:30N 45°46' W 122°46'3 5.3
2018-Aug-16 06:00N 45°49' W 122°48'3 5.4
2018-Aug-16 05:30N 45°51' W 122°47'3 5.6
2018-Aug-16 05:00N 45°54' W 122°48'3 6.2
2018-Aug-16 04:30N 45°57' W 122°49'3 6.6
2018-Aug-16 03:59N 46°00' W 122°51'3 6.8
2018-Aug-16 03:30N 46°03' W 122°53'4 4.6
2018-Aug-16 02:44N 46°06' W 122°56'0 0.0
2018-Aug-16 02:29N 46°06' W 122°56'2 5.2
2018-Aug-16 02:00N 46°07' W 122°59'4 8.5
2018-Aug-16 01:30N 46°10' W 123°04'4 8.3
2018-Aug-16 01:00N 46°11' W 123°10'5 8.4
2018-Aug-16 00:28N 46°09' W 123°15'4 8.3
2018-Aug-16 00:00N 46°09' W 123°21'3 5.2
2018-Aug-15 23:30N 46°10' W 123°24'0 0.2
2018-Aug-15 23:00N 46°10' W 123°24'3 6.4
2018-Aug-15 22:30N 46°13' W 123°25'5 8.9
2018-Aug-15 22:00N 46°16' W 123°30'510.3
2018-Aug-15 21:30N 46°15' W 123°37'510.2
2018-Aug-15 21:00N 46°14' W 123°44'510.2
2018-Aug-15 20:30N 46°12' W 123°51'3 6.7
2018-Aug-15 20:01N 46°11' W 123°55'0 0.1
2018-Aug-15 19:30N 46°11' W 123°55'0 0.0
2018-Aug-15 19:00N 46°12' W 123°55'2 4.3
2018-Aug-15 18:30N 46°12' W 123°52'611.1
2018-Aug-15 18:01N 46°13' W 123°45'611.5
2018-Aug-15 17:30N 46°15' W 123°37'611.4
2018-Aug-15 17:00N 46°16' W 123°29'510.5
2018-Aug-15 16:30N 46°11' W 123°26'610.1
2018-Aug-15 15:56N 46°09' W 123°19'410.6
2018-Aug-15 15:31N 46°10' W 123°13'5 9.5
2018-Aug-15 15:00N 46°10' W 123°06'5 9.7
2018-Aug-15 14:30N 46°08' W 122°60'4 7.6
2018-Aug-15 14:00N 46°05' W 122°55'0 0.1
2018-Aug-15 13:27N 46°05' W 122°55'1 2.4
2018-Aug-15 13:00N 46°06' W 122°55'1 0.1
2018-Aug-15 02:08N 46°06' W 122°55'0 0.9
2018-Aug-15 02:00N 46°06' W 122°56'2 3.2
2018-Aug-15 01:17N 46°07' W 122°58'2 8.5
2018-Aug-15 01:01N 46°08' W 123°01'4 8.6
2018-Aug-15 00:31N 46°11' W 123°06'5 8.1
2018-Aug-14 23:56N 46°10' W 123°13'5 8.5
2018-Aug-14 23:23N 46°09' W 123°19'3 8.3
2018-Aug-14 22:59N 46°09' W 123°24'4 7.9
2018-Aug-14 22:31N 46°13' W 123°25'5 7.1
2018-Aug-14 21:49N 46°16' W 123°31'3 8.8
2018-Aug-14 21:28N 46°15' W 123°36'6 8.7
2018-Aug-14 20:47N 46°14' W 123°44'3 9.6
2018-Aug-14 20:31N 46°12' W 123°47'4 8.7
2018-Aug-14 20:01N 46°11' W 123°53'1 2.7
2018-Aug-14 19:31N 46°11' W 123°55'0 0.1
2018-Aug-14 18:55N 46°11' W 123°55'0 0.1
2018-Aug-14 18:30N 46°11' W 123°55'0 0.0
2018-Aug-14 18:00N 46°11' W 123°55'0 0.0
2018-Aug-14 17:30N 46°11' W 123°55'5 8.7
2018-Aug-14 16:54N 46°12' W 123°48'512.3
2018-Aug-14 16:31N 46°15' W 123°42'612.1
2018-Aug-14 16:01N 46°15' W 123°33'510.1
2018-Aug-14 15:31N 46°14' W 123°26'510.9
2018-Aug-14 15:01N 46°09' W 123°24'510.6
2018-Aug-14 14:30N 46°09' W 123°16'510.2
2018-Aug-14 14:01N 46°11' W 123°09'5 9.3
2018-Aug-14 13:30N 46°09' W 123°03'4 8.4
2018-Aug-14 13:00N 46°07' W 122°58'2 3.9
2018-Aug-14 12:30N 46°06' W 122°56'1 0.1
2018-Aug-14 02:33N 46°06' W 122°55'0 0.0
2018-Aug-14 02:29N 46°06' W 122°55'1 2.1
2018-Aug-14 01:57N 46°05' W 122°56'1 1.4
2018-Aug-14 01:31N 46°06' W 122°55'0 0.3
2018-Aug-14 01:00N 46°06' W 122°55'0 0.7
2018-Aug-14 00:30N 46°06' W 122°56'5 6.6
2018-Aug-13 23:45N 46°01' W 122°52'2 8.0
2018-Aug-13 23:31N 45°60' W 122°51'4 8.2
2018-Aug-13 23:01N 45°56' W 122°48'5 9.1
2018-Aug-13 22:30N 45°51' W 122°47'4 9.0
2018-Aug-13 22:00N 45°47' W 122°46'5 9.2
2018-Aug-13 21:30N 45°42' W 122°46'4 8.0
2018-Aug-13 21:01N 45°39' W 122°44'4 8.8
2018-Aug-13 20:30N 45°37' W 122°38'5 9.0
2018-Aug-13 20:00N 45°35' W 122°32'5 9.0
2018-Aug-13 19:30N 45°34' W 122°26'4 8.1
2018-Aug-13 19:01N 45°33' W 122°20'4 8.5
2018-Aug-13 18:30N 45°33' W 122°14'5 8.7
2018-Aug-13 17:59N 45°35' W 122°08'4 8.5
2018-Aug-13 17:29N 45°37' W 122°03'  
2018-Aug-08 16:49N 45°37' W 122°01'1 3.7
2018-Aug-08 16:30N 45°37' W 122°02'3 6.4
2018-Aug-08 16:00N 45°35' W 122°06'3 7.0
2018-Aug-08 15:31N 45°34' W 122°11'3 6.8
2018-Aug-08 15:00N 45°33' W 122°15'3 6.5
2018-Aug-08 14:31N 45°33' W 122°20'3 5.5
2018-Aug-08 14:00N 45°34' W 122°24'3 5.1
2018-Aug-08 13:27N 45°35' W 122°28'1 0.1
2018-Aug-08 03:46N 45°35' W 122°29'1 3.3
2018-Aug-08 03:30N 45°35' W 122°30'4 7.1
2018-Aug-08 03:00N 45°36' W 122°35'4 7.3
2018-Aug-08 02:31N 45°37' W 122°40'4 7.4
2018-Aug-08 02:01N 45°39' W 122°45'3 7.0
2018-Aug-08 01:30N 45°42' W 122°46'4 7.5
2018-Aug-08 00:59N 45°46' W 122°46'4 7.4
2018-Aug-08 00:30N 45°49' W 122°48'3 7.1
2018-Aug-08 00:01N 45°53' W 122°48'4 7.2
2018-Aug-07 23:30N 45°56' W 122°48'4 7.6
2018-Aug-07 23:01N 45°60' W 122°51'4 7.5
2018-Aug-07 22:31N 46°03' W 122°53'3 5.7
2018-Aug-07 22:00N 46°05' W 122°56'1 1.3
2018-Aug-07 21:31N 46°06' W 122°55'0 0.9
2018-Aug-07 21:01N 46°06' W 122°56'0 0.6
2018-Aug-07 20:30N 46°06' W 122°56'1 1.1
2018-Aug-07 20:01N 46°06' W 122°55'1 1.3
2018-Aug-07 19:30N 46°06' W 122°56'1 0.0
2018-Aug-07 01:07N 46°05' W 122°56'  
Track history (hours):
 
Tides and Currents Weather Stations Pressure Air Temp Water Temp Dewpoint Dewpoint Depression Visibility Wind Speed Wind Dir Waves Ship Positions

Dauby

Owner: S D S LUMBER CO, BIRGEN, WA. More information available from US FCC via Universal Licensing System and Coast Guard Vessel Documentation Center.

Last reported at 2018-Aug-17 00:58 UTC. Time now 2018-Aug-17 11:39 UTC.
Position N 46°06' W 122°55'.

Length 15 m; draft 2.8 m.

MMSI: 338059832.

Date/timePositionNaut miles runAvg speedWind from/ knotsBaromVisibWave heightAir tempDewpointWater temp
2018-Aug-17 00:58N 46°06' W 122°55'2 2.6
2018-Aug-17 00:19N 46°05' W 122°54'310.3
2018-Aug-17 00:00N 46°02' W 122°52'510.6
2018-Aug-16 23:30N 45°57' W 122°49'3 5.2
2018-Aug-16 23:01N 45°54' W 122°49'4 7.1
2018-Aug-16 22:30N 45°58' W 122°49'4 7.6
2018-Aug-16 22:01N 46°01' W 122°52'4 7.2
2018-Aug-16 21:29N 46°05' W 122°54'1 2.7
2018-Aug-16 21:00N 46°05' W 122°56'0 0.0
2018-Aug-16 11:45N 46°05' W 122°56'0 0.0
2018-Aug-16 11:30N 46°05' W 122°56'2 3.0
2018-Aug-16 10:44N 46°04' W 122°53'411.3
2018-Aug-16 10:22N 45°60' W 122°51'510.9
2018-Aug-16 09:52N 45°55' W 122°49'411.3
2018-Aug-16 09:30N 45°51' W 122°47'510.7
2018-Aug-16 09:00N 45°46' W 122°46'611.0
2018-Aug-16 08:30N 45°40' W 122°46'1 2.5
2018-Aug-16 08:00N 45°39' W 122°45'2 4.4
2018-Aug-16 07:30N 45°41' W 122°46'3 5.2
2018-Aug-16 06:58N 45°44' W 122°46'3 5.3
2018-Aug-16 06:30N 45°46' W 122°46'3 5.3
2018-Aug-16 06:00N 45°49' W 122°48'3 5.4
2018-Aug-16 05:30N 45°51' W 122°47'3 5.6
2018-Aug-16 05:00N 45°54' W 122°48'3 6.2
2018-Aug-16 04:30N 45°57' W 122°49'3 6.6
2018-Aug-16 03:59N 46°00' W 122°51'3 6.8
2018-Aug-16 03:30N 46°03' W 122°53'4 4.6
2018-Aug-16 02:44N 46°06' W 122°56'0 0.0
2018-Aug-16 02:29N 46°06' W 122°56'2 5.2
2018-Aug-16 02:00N 46°07' W 122°59'4 8.5
2018-Aug-16 01:30N 46°10' W 123°04'4 8.3
2018-Aug-16 01:00N 46°11' W 123°10'5 8.4
2018-Aug-16 00:28N 46°09' W 123°15'4 8.3
2018-Aug-16 00:00N 46°09' W 123°21'3 5.2
2018-Aug-15 23:30N 46°10' W 123°24'0 0.2
2018-Aug-15 23:00N 46°10' W 123°24'3 6.4
2018-Aug-15 22:30N 46°13' W 123°25'5 8.9
2018-Aug-15 22:00N 46°16' W 123°30'510.3
2018-Aug-15 21:30N 46°15' W 123°37'510.2
2018-Aug-15 21:00N 46°14' W 123°44'510.2
2018-Aug-15 20:30N 46°12' W 123°51'3 6.7
2018-Aug-15 20:01N 46°11' W 123°55'0 0.1
2018-Aug-15 19:30N 46°11' W 123°55'0 0.0
2018-Aug-15 19:00N 46°12' W 123°55'2 4.3
2018-Aug-15 18:30N 46°12' W 123°52'611.1
2018-Aug-15 18:01N 46°13' W 123°45'611.5
2018-Aug-15 17:30N 46°15' W 123°37'611.4
2018-Aug-15 17:00N 46°16' W 123°29'510.5
2018-Aug-15 16:30N 46°11' W 123°26'610.1
2018-Aug-15 15:56N 46°09' W 123°19'410.6
2018-Aug-15 15:31N 46°10' W 123°13'5 9.5
2018-Aug-15 15:00N 46°10' W 123°06'5 9.7
2018-Aug-15 14:30N 46°08' W 122°60'4 7.6
2018-Aug-15 14:00N 46°05' W 122°55'0 0.1
2018-Aug-15 13:27N 46°05' W 122°55'1 2.4
2018-Aug-15 13:00N 46°06' W 122°55'1 0.1
2018-Aug-15 02:08N 46°06' W 122°55'0 0.9
2018-Aug-15 02:00N 46°06' W 122°56'2 3.2
2018-Aug-15 01:17N 46°07' W 122°58'2 8.5
2018-Aug-15 01:01N 46°08' W 123°01'4 8.6
2018-Aug-15 00:31N 46°11' W 123°06'5 8.1
2018-Aug-14 23:56N 46°10' W 123°13'5 8.5
2018-Aug-14 23:23N 46°09' W 123°19'3 8.3
2018-Aug-14 22:59N 46°09' W 123°24'4 7.9
2018-Aug-14 22:31N 46°13' W 123°25'5 7.1
2018-Aug-14 21:49N 46°16' W 123°31'3 8.8
2018-Aug-14 21:28N 46°15' W 123°36'6 8.7
2018-Aug-14 20:47N 46°14' W 123°44'3 9.6
2018-Aug-14 20:31N 46°12' W 123°47'4 8.7
2018-Aug-14 20:01N 46°11' W 123°53'1 2.7
2018-Aug-14 19:31N 46°11' W 123°55'0 0.1
2018-Aug-14 18:55N 46°11' W 123°55'0 0.1
2018-Aug-14 18:30N 46°11' W 123°55'0 0.0
2018-Aug-14 18:00N 46°11' W 123°55'0 0.0
2018-Aug-14 17:30N 46°11' W 123°55'5 8.7
2018-Aug-14 16:54N 46°12' W 123°48'512.3
2018-Aug-14 16:31N 46°15' W 123°42'612.1
2018-Aug-14 16:01N 46°15' W 123°33'510.1
2018-Aug-14 15:31N 46°14' W 123°26'510.9
2018-Aug-14 15:01N 46°09' W 123°24'510.6
2018-Aug-14 14:30N 46°09' W 123°16'510.2
2018-Aug-14 14:01N 46°11' W 123°09'5 9.3
2018-Aug-14 13:30N 46°09' W 123°03'4 8.4
2018-Aug-14 13:00N 46°07' W 122°58'2 3.9
2018-Aug-14 12:30N 46°06' W 122°56'1 0.1
2018-Aug-14 02:33N 46°06' W 122°55'0 0.0
2018-Aug-14 02:29N 46°06' W 122°55'1 2.1
2018-Aug-14 01:57N 46°05' W 122°56'1 1.4
2018-Aug-14 01:31N 46°06' W 122°55'0 0.3
2018-Aug-14 01:00N 46°06' W 122°55'0 0.7
2018-Aug-14 00:30N 46°06' W 122°56'5 6.6
2018-Aug-13 23:45N 46°01' W 122°52'2 8.0
2018-Aug-13 23:31N 45°60' W 122°51'4 8.2
2018-Aug-13 23:01N 45°56' W 122°48'5 9.1
2018-Aug-13 22:30N 45°51' W 122°47'4 9.0
2018-Aug-13 22:00N 45°47' W 122°46'5 9.2
2018-Aug-13 21:30N 45°42' W 122°46'4 8.0
2018-Aug-13 21:01N 45°39' W 122°44'4 8.8
2018-Aug-13 20:30N 45°37' W 122°38'5 9.0
2018-Aug-13 20:00N 45°35' W 122°32'5 9.0
2018-Aug-13 19:30N 45°34' W 122°26'4 8.1
2018-Aug-13 19:01N 45°33' W 122°20'4 8.5
2018-Aug-13 18:30N 45°33' W 122°14'5 8.7
2018-Aug-13 17:59N 45°35' W 122°08'4 8.5
2018-Aug-13 17:29N 45°37' W 122°03'  
2018-Aug-08 16:49N 45°37' W 122°01'1 3.7
2018-Aug-08 16:30N 45°37' W 122°02'3 6.4
2018-Aug-08 16:00N 45°35' W 122°06'3 7.0
2018-Aug-08 15:31N 45°34' W 122°11'3 6.8
2018-Aug-08 15:00N 45°33' W 122°15'3 6.5
2018-Aug-08 14:31N 45°33' W 122°20'3 5.5
2018-Aug-08 14:00N 45°34' W 122°24'3 5.1
2018-Aug-08 13:27N 45°35' W 122°28'1 0.1
2018-Aug-08 03:46N 45°35' W 122°29'1 3.3
2018-Aug-08 03:30N 45°35' W 122°30'4 7.1
2018-Aug-08 03:00N 45°36' W 122°35'4 7.3
2018-Aug-08 02:31N 45°37' W 122°40'4 7.4
2018-Aug-08 02:01N 45°39' W 122°45'3 7.0
2018-Aug-08 01:30N 45°42' W 122°46'4 7.5
2018-Aug-08 00:59N 45°46' W 122°46'4 7.4
2018-Aug-08 00:30N 45°49' W 122°48'3 7.1
2018-Aug-08 00:01N 45°53' W 122°48'4 7.2
2018-Aug-07 23:30N 45°56' W 122°48'4 7.6
2018-Aug-07 23:01N 45°60' W 122°51'4 7.5
2018-Aug-07 22:31N 46°03' W 122°53'3 5.7
2018-Aug-07 22:00N 46°05' W 122°56'1 1.3
2018-Aug-07 21:31N 46°06' W 122°55'0 0.9
2018-Aug-07 21:01N 46°06' W 122°56'0 0.6
2018-Aug-07 20:30N 46°06' W 122°56'1 1.1
2018-Aug-07 20:01N 46°06' W 122°55'1 1.3
2018-Aug-07 19:30N 46°06' W 122°56'1 0.0
2018-Aug-07 01:07N 46°05' W 122°56'  

Dump ship's entire track history